Aérodrome :







RETROUVEZ-NOUS SUR...

 
LOGIN :

S'inscrire | Disclaimer

   EN    FR    IT 

 









Légende :    VFR   VFR Marginal   IFR   IFR Intensif   IFR Très Intensif
Visi : 
Plafond : 
>= 8 km
>= 3000ft
5 à 8 km
1000 à 3000 ft
1500m à 5 km
500 à 1000 ft
800 à 1500m
200 à 500 ft
< 800m
< 200 ft
Symboles :   Orages  Brouillard  Fortes neiges  Fortes précipitations  Vent > 20 kt






- Altitude de l'aérodrome : 133 ft
- Code IATA : BED


KBED - Laurence G Hanscom Field

DERNIER METAR :
  • 221951Z 22013KT 10SM CLR 08/M11 A3006 RMK AO2 SLP195 T00781106

METARs EXPIRÉS :
  • 221851Z 23011KT 10SM CLR 07/M11 A3006 RMK AO2 SLP196 T00721111
  • 221751Z 22009KT 10SM CLR 07/M12 A3008 RMK AO2 SLP201 T00671117 10067 21044 58029

TAF KBED
Valide du 22 à 18h jusqu'au 23 à 18h UTC


221739Z 2218/2318 25010KT P6SM SKC
FM222200 26008KT P6SM SKC
FM230600 24003KT P6SM SKC
FM231600 26008KT P6SM SKC



MET'MAP, la Météo Aéronautique d'un coup d'oeil ! - Copyright ORBIFLY Décembre 2007 - Disclaimer

ORBIFLY MET'MAP TEAM :

Programmation & Développement : Alexandra Zaïnal
Sur une idée originale de : Baudouin d'Aumeries
Assistance à la programmation : Marc-Olivier Méhu
Soutien technique & logistique : Manuel Goepfert

Contact : metmap@orbifly.com




SOURCES & CREDITS :

   NOAA